Time;durP1;ratioP1;P1;durP2;ratioP2;P2;SDS_P1;SDS_P2;PMS_P1;PMS_P2;Temp;Humidity;BMP_temperature;BMP_pressure;BME280_temperature;BME280_humidity;BME280_pressure;Samples;Min_cycle;Max_cycle;Signal;HPM_P1;HPM_P2
2022/10/12 00:00:11;;;;;;;4.90;2.40;;;;;;;6.77;88.60;101078.66;5053393;28;19919;-82
2022/10/12 00:02:37;;;;;;;8.10;2.75;;;;;;;6.66;89.48;101079.84;5035752;28;20132;-82
2022/10/12 00:05:02;;;;;;;6.70;1.98;;;;;;;6.48;90.74;101078.63;5035784;28;20162;-81
2022/10/12 00:07:29;;;;;;;9.20;2.47;;;;;;;6.42;91.75;101082.50;5053500;28;20039;-82
2022/10/12 00:09:54;;;;;;;;;;;;;;;6.38;91.67;101077.91;5054537;28;20082;-82
2022/10/12 00:12:20;;;;;;;6.35;2.50;;;;;;;6.36;91.78;101085.50;5053609;28;19917;-81
2022/10/12 00:14:46;;;;;;;7.72;2.30;;;;;;;6.44;91.21;101082.22;5054085;28;20036;-82
2022/10/12 00:17:11;;;;;;;5.10;1.80;;;;;;;6.46;91.19;101086.25;5053767;28;20385;-80
2022/10/12 00:19:37;;;;;;;5.43;2.27;;;;;;;6.53;90.90;101075.88;5053691;28;20378;-81
2022/10/12 00:22:04;;;;;;;4.95;2.05;;;;;;;6.67;89.92;101077.94;5053976;28;20267;-83
2022/10/12 00:24:29;;;;;;;;;;;;;;;6.60;90.42;101072.88;5035976;28;20048;-82
2022/10/12 00:26:54;;;;;;;7.32;2.20;;;;;;;6.65;90.27;101078.22;5053859;28;19908;-81
2022/10/12 00:29:22;;;;;;;4.47;1.63;;;;;;;6.74;89.55;101073.81;5053724;28;20029;-81
2022/10/12 00:31:48;;;;;;;4.38;2.20;;;;;;;6.84;89.25;101076.41;5053565;28;20434;-82
2022/10/12 00:34:13;;;;;;;5.70;1.80;;;;;;;6.93;88.29;101082.81;5053531;28;20027;-82
2022/10/12 00:36:39;;;;;;;4.57;1.70;;;;;;;7.00;87.35;101074.34;5053442;28;20037;-81
2022/10/12 00:39:07;;;;;;;4.15;1.67;;;;;;;7.11;86.69;101081.28;5053672;28;20260;-81
2022/10/12 00:41:38;;;;;;;4.03;1.52;;;;;;;7.08;86.40;101072.94;5053699;28;20029;-82
2022/10/12 00:44:41;;;;;;;7.10;1.90;;;;;;;7.25;85.74;101078.69;5053636;28;20112;-81
2022/10/12 00:47:28;;;;;;;4.40;1.40;;;;;;;7.32;85.12;101081.84;5052305;28;20028;-82
2022/10/12 00:50:01;;;;;;;8.10;2.58;;;;;;;7.35;84.80;101083.97;5053338;28;20025;-83
2022/10/12 00:52:34;;;;;;;5.45;2.08;;;;;;;7.31;85.00;101080.22;5053683;28;20037;-82
2022/10/12 00:55:01;;;;;;;4.03;1.63;;;;;;;7.32;85.44;101075.63;5051907;28;20040;-81
2022/10/12 00:57:33;;;;;;;6.88;2.08;;;;;;;7.24;85.70;101072.47;5035282;28;20052;-81
2022/10/12 01:00:04;;;;;;;6.43;1.80;;;;;;;7.05;86.88;101079.69;5051864;28;20086;-82
2022/10/12 01:02:32;;;;;;;7.28;2.47;;;;;;;6.90;86.75;101074.47;5053646;28;20032;-84
2022/10/12 01:04:59;;;;;;;5.15;1.75;;;;;;;7.10;86.29;101073.44;5053024;28;20021;-82
2022/10/12 01:07:24;;;;;;;6.30;2.03;;;;;;;7.12;85.74;101076.66;5053601;28;20028;-81
2022/10/12 01:09:50;;;;;;;9.57;2.53;;;;;;;6.96;86.25;101078.72;5052816;28;20025;-81
2022/10/12 01:12:16;;;;;;;4.85;1.48;;;;;;;7.11;85.90;101070.44;5052998;28;20033;-81
2022/10/12 01:14:41;;;;;;;5.40;1.98;;;;;;;7.22;84.87;101074.66;5051726;28;20128;-80
2022/10/12 01:17:21;;;;;;;5.70;1.63;;;;;;;7.18;84.93;101075.50;5052870;28;20537;-81
2022/10/12 01:20:08;;;;;;;4.03;1.75;;;;;;;7.18;84.86;101061.97;5053232;28;20037;-82
2022/10/12 01:22:45;;;;;;;6.38;2.28;;;;;;;6.85;86.39;101072.59;5052921;28;20112;-81
2022/10/12 01:26:04;;;;;;;7.15;1.70;;;;;;;6.63;87.35;101064.16;5053151;28;20036;-82
2022/10/12 01:28:51;;;;;;;5.55;1.92;;;;;;;6.95;85.96;101060.88;5038389;28;20482;-82
2022/10/12 01:31:42;;;;;;;5.05;1.90;;;;;;;7.01;85.24;101061.63;5053009;28;20029;-82
2022/10/12 01:34:58;;;;;;;7.55;1.60;;;;;;;7.04;85.13;101052.91;5052632;28;20016;-82
2022/10/12 01:37:30;;;;;;;5.40;2.08;;;;;;;6.92;85.79;101045.22;5029748;28;20040;-82
2022/10/12 01:40:01;;;;;;;5.97;2.08;;;;;;;6.90;85.26;101050.09;5052798;28;20035;-82
2022/10/12 01:42:39;;;;;;;5.63;1.98;;;;;;;6.57;86.68;101044.47;5050815;28;20036;-82
2022/10/12 01:45:15;;;;;;;3.58;1.55;;;;;;;6.53;86.58;101042.59;5050970;28;20051;-82
2022/10/12 01:47:47;;;;;;;6.55;2.53;;;;;;;6.38;87.46;101043.53;5050713;28;20043;-82
2022/10/12 01:50:15;;;;;;;5.47;1.50;;;;;;;6.52;87.39;101041.00;5052435;28;20457;-82
2022/10/12 01:53:12;;;;;;;3.47;1.63;;;;;;;6.78;85.48;101044.28;5051076;28;20156;-81
2022/10/12 01:55:54;;;;;;;6.28;1.83;;;;;;;6.73;85.64;101031.59;5052594;28;20024;-81
2022/10/12 01:58:36;;;;;;;3.78;1.50;;;;;;;6.60;86.12;101033.09;5050575;28;20482;-81
2022/10/12 02:01:33;;;;;;;10.68;2.10;;;;;;;6.62;86.13;101033.59;5034002;28;20041;-82
2022/10/12 02:04:28;;;;;;;;;;;;;;;6.58;86.23;101039.88;5035022;28;20043;-83
2022/10/12 02:07:22;;;;;;;4.43;1.75;;;;;;;6.57;86.28;101030.94;5041088;28;19916;-82
2022/10/12 02:10:05;;;;;;;3.70;1.73;;;;;;;6.63;86.06;101031.69;5051992;28;20501;-82
2022/10/12 02:12:36;;;;;;;6.85;1.70;;;;;;;6.66;85.90;101033.81;5052178;28;20021;-80
2022/10/12 02:15:06;;;;;;;6.13;1.90;;;;;;;6.74;85.47;101041.34;5052523;28;20371;-82
2022/10/12 02:17:33;;;;;;;9.38;2.55;;;;;;;6.67;85.41;101035.44;5033979;28;20119;-81
2022/10/12 02:20:04;;;;;;;3.88;1.63;;;;;;;6.70;85.26;101034.84;5052163;28;20040;-82
2022/10/12 02:22:35;;;;;;;5.00;1.92;;;;;;;6.76;85.30;101036.44;5052209;28;20043;-82
2022/10/12 02:25:07;;;;;;;5.65;1.80;;;;;;;6.68;85.52;101031.63;5034572;28;20025;-82
2022/10/12 02:27:35;;;;;;;6.15;2.03;;;;;;;6.58;85.88;101029.06;5017944;28;20025;-81
2022/10/12 02:30:07;;;;;;;8.45;1.90;;;;;;;6.82;84.99;101021.75;5025012;28;20044;-81
2022/10/12 02:33:07;;;;;;;6.75;2.35;;;;;;;6.79;85.03;101025.03;5034207;28;20405;-81
2022/10/12 02:36:00;;;;;;;6.60;2.25;;;;;;;6.72;85.52;101005.63;4951131;28;20031;-82
2022/10/12 02:38:37;;;;;;;7.35;1.70;;;;;;;6.63;85.50;101012.75;4972364;28;20031;-81
2022/10/12 02:41:19;;;;;;;5.50;2.30;;;;;;;6.31;87.11;100999.81;5051657;28;20539;-81
2022/10/12 02:43:49;;;;;;;6.97;1.73;;;;;;;6.29;87.55;101002.78;5047163;28;20044;-81
2022/10/12 02:46:17;;;;;;;6.03;2.17;;;;;;;6.28;87.74;100998.47;5051924;28;20025;-82
2022/10/12 02:48:48;;;;;;;9.30;3.40;;;;;;;6.17;87.90;101001.53;5052100;28;20029;-82
2022/10/12 02:51:30;;;;;;;6.90;2.13;;;;;;;6.15;88.31;100999.13;5034047;28;20435;-81
2022/10/12 02:53:56;;;;;;;7.95;2.13;;;;;;;6.11;88.55;100994.56;5051728;28;20032;-82
2022/10/12 02:56:22;;;;;;;6.45;2.03;;;;;;;6.04;88.54;101003.00;5051361;28;20113;-82
2022/10/12 02:58:56;;;;;;;4.38;1.85;;;;;;;5.88;89.05;100993.34;5051838;28;20059;-81
2022/10/12 03:01:21;;;;;;;6.07;2.13;;;;;;;5.94;88.96;100993.09;5033762;28;20540;-81
2022/10/12 03:03:50;;;;;;;4.78;2.10;;;;;;;5.80;90.05;100994.78;5033761;28;20124;-82
2022/10/12 03:06:16;;;;;;;3.90;2.00;;;;;;;5.72;90.50;100985.38;5051913;28;20058;-83
2022/10/12 03:08:55;;;;;;;5.18;1.70;;;;;;;5.65;90.77;100984.88;5051177;28;20029;-82
2022/10/12 03:11:30;;;;;;;6.63;1.92;;;;;;;5.74;90.66;100982.41;5033680;28;20048;-83
2022/10/12 03:13:59;;;;;;;5.15;1.80;;;;;;;5.68;90.95;100981.59;5051729;28;20074;-83
2022/10/12 03:16:25;;;;;;;7.95;2.10;;;;;;;5.73;91.10;100980.78;5051468;28;20025;-82
2022/10/12 03:18:51;;;;;;;6.50;2.35;;;;;;;5.69;91.13;100983.22;5051964;28;20028;-82
2022/10/12 03:21:17;;;;;;;7.95;2.78;;;;;;;5.91;90.30;100982.03;5033824;28;20021;-81
2022/10/12 03:23:51;;;;;;;5.13;2.25;;;;;;;6.06;89.07;100976.50;5033770;28;20059;-83
2022/10/12 03:26:17;;;;;;;7.15;1.95;;;;;;;6.22;88.35;100978.00;5051414;28;20050;-82
2022/10/12 03:28:42;;;;;;;7.00;1.90;;;;;;;6.24;88.33;100983.13;5051582;28;20469;-82
2022/10/12 03:31:10;;;;;;;6.00;1.67;;;;;;;6.28;88.55;100974.13;5033428;28;20328;-81
2022/10/12 03:33:36;;;;;;;8.35;2.72;;;;;;;6.25;87.92;100982.00;5033453;28;20120;-82
2022/10/12 03:36:01;;;;;;;4.63;1.60;;;;;;;6.21;88.35;100976.34;5053010;28;20446;-82
2022/10/12 03:38:27;;;;;;;6.05;2.00;;;;;;;6.19;88.34;100978.53;5054334;28;20503;-82
2022/10/12 03:40:56;;;;;;;4.65;2.08;;;;;;;6.19;89.00;100981.25;5036923;28;20040;-81
2022/10/12 03:43:38;;;;;;;5.93;2.22;;;;;;;6.08;89.25;100977.03;5054595;28;20064;-82
2022/10/12 03:46:03;;;;;;;6.13;2.53;;;;;;;6.23;88.72;100974.19;5036643;28;20035;-81
2022/10/12 03:48:30;;;;;;;8.75;1.70;;;;;;;6.19;88.91;100964.22;5054252;28;20025;-81
2022/10/12 03:50:55;;;;;;;8.10;2.80;;;;;;;6.24;88.44;100970.41;5020100;28;20031;-81
2022/10/12 03:53:21;;;;;;;6.83;1.90;;;;;;;6.25;88.20;100966.59;5036700;28;20438;-80
2022/10/12 03:55:46;;;;;;;3.88;1.80;;;;;;;6.17;88.33;100972.59;5036138;28;20020;-79
2022/10/12 03:58:17;;;;;;;4.70;1.83;;;;;;;6.16;88.34;100967.47;5049221;28;20524;-80
2022/10/12 04:00:45;;;;;;;5.25;2.22;;;;;;;6.09;88.67;100967.03;5052905;28;20644;-81
2022/10/12 04:03:11;;;;;;;7.45;3.10;;;;;;;6.14;88.62;100975.88;5054084;28;20033;-81
2022/10/12 04:05:36;;;;;;;5.57;2.00;;;;;;;6.09;88.66;100969.72;5054342;28;20394;-80
2022/10/12 04:08:04;;;;;;;4.60;2.25;;;;;;;5.97;89.09;100968.19;5054194;28;20021;-80
2022/10/12 04:10:33;;;;;;;5.32;1.70;;;;;;;5.88;89.90;100977.13;5052440;28;20182;-81
2022/10/12 04:13:19;;;;;;;5.53;1.80;;;;;;;6.03;89.19;100972.44;5054500;28;20032;-79
2022/10/12 04:15:45;;;;;;;7.60;2.25;;;;;;;5.92;89.25;100970.13;5052790;28;20033;-81
2022/10/12 04:18:14;;;;;;;6.60;2.05;;;;;;;6.04;89.00;100970.56;5054467;28;20436;-81
2022/10/12 04:20:46;;;;;;;7.00;2.58;;;;;;;5.89;89.97;100963.38;5054466;28;20025;-80
2022/10/12 04:23:11;;;;;;;7.95;2.60;;;;;;;5.96;90.15;100963.06;5052772;28;20165;-81
2022/10/12 04:25:36;;;;;;;9.00;3.00;;;;;;;6.01;90.06;100965.72;5052652;28;20033;-81
2022/10/12 04:28:02;;;;;;;10.80;2.77;;;;;;;6.10;89.68;100957.81;5053657;28;20020;-80
2022/10/12 04:30:40;;;;;;;7.10;2.33;;;;;;;6.28;88.23;100955.19;5053728;28;20480;-80
2022/10/12 04:33:06;;;;;;;6.10;1.83;;;;;;;6.19;88.36;100951.50;5052668;28;20757;-81
2022/10/12 04:35:32;;;;;;;10.18;3.05;;;;;;;6.06;89.16;100963.00;5053463;28;20028;-80
2022/10/12 04:37:57;;;;;;;8.00;2.17;;;;;;;5.92;89.24;100946.63;5052882;28;20052;-81
2022/10/12 04:40:23;;;;;;;7.93;2.80;;;;;;;5.84;89.93;100957.19;5051979;28;20116;-80
2022/10/12 04:42:48;;;;;;;5.35;2.42;;;;;;;5.82;90.25;100956.66;5053186;28;20617;-81
2022/10/12 04:45:14;;;;;;;6.55;2.20;;;;;;;5.87;90.32;100962.00;5053576;28;20033;-80
2022/10/12 04:47:39;;;;;;;7.43;2.30;;;;;;;5.89;90.04;100959.84;5051462;28;20040;-80
2022/10/12 04:50:05;;;;;;;7.40;1.90;;;;;;;5.82;89.80;100962.06;5035053;28;20487;-81
2022/10/12 04:52:31;;;;;;;7.20;2.25;;;;;;;5.73;90.97;100967.28;5051824;28;20025;-81
2022/10/12 04:54:56;;;;;;;4.97;1.77;;;;;;;5.71;91.96;100964.03;5051807;28;20095;-81
2022/10/12 04:57:23;;;;;;;5.10;1.90;;;;;;;5.89;90.35;100965.25;5052786;28;20053;-81
2022/10/12 04:59:48;;;;;;;10.20;2.75;;;;;;;6.06;89.73;100954.06;5052749;28;20021;-81
2022/10/12 05:02:14;;;;;;;6.82;2.33;;;;;;;6.12;89.71;100959.13;5035062;28;20093;-81
2022/10/12 05:04:41;;;;;;;7.28;2.42;;;;;;;6.28;88.71;100954.41;5052771;28;20469;-81
2022/10/12 05:07:09;;;;;;;7.65;2.78;;;;;;;6.26;88.40;100951.97;5052572;28;20044;-80
2022/10/12 05:09:35;;;;;;;5.05;2.30;;;;;;;6.19;88.34;100953.38;5052174;28;20035;-80
2022/10/12 05:12:00;;;;;;;4.30;2.00;;;;;;;6.25;88.44;100944.97;5052471;28;20025;-80
2022/10/12 05:14:25;;;;;;;5.93;2.23;;;;;;;6.02;89.53;100943.81;5052608;28;20321;-80
2022/10/12 05:16:54;;;;;;;11.38;2.35;;;;;;;6.06;90.12;100949.47;5052753;28;20053;-80
2022/10/12 05:19:20;;;;;;;7.63;2.25;;;;;;;6.12;89.94;100945.63;5052676;28;20116;-80
2022/10/12 05:21:45;;;;;;;8.87;3.60;;;;;;;6.12;89.68;100950.22;5052963;28;20119;-81
2022/10/12 05:24:11;;;;;;;10.85;3.15;;;;;;;6.00;89.80;100953.28;5052397;28;20568;-81
2022/10/12 05:26:36;;;;;;;9.52;3.17;;;;;;;6.01;90.23;100944.91;5052909;28;20029;-80
2022/10/12 05:29:01;;;;;;;10.75;3.45;;;;;;;6.00;90.25;100945.19;5034764;28;20544;-80
2022/10/12 05:31:27;;;;;;;6.07;2.05;;;;;;;6.13;90.03;100936.41;5034654;28;20029;-81
2022/10/12 05:33:53;;;;;;;12.03;4.00;;;;;;;6.46;88.75;100942.03;5034483;28;20119;-80
2022/10/12 05:36:18;;;;;;;21.90;7.10;;;;;;;6.52;87.72;100949.00;5034594;28;20064;-81
2022/10/12 05:38:43;;;;;;;11.40;5.00;;;;;;;6.40;88.08;100944.00;5052615;28;20027;-81
2022/10/12 05:41:09;;;;;;;8.67;4.00;;;;;;;6.30;88.64;100950.31;5034345;28;20482;-81
2022/10/12 05:43:34;;;;;;;10.10;3.20;;;;;;;6.31;88.83;100951.13;5034235;28;20086;-80
2022/10/12 05:46:01;;;;;;;11.47;3.60;;;;;;;6.23;88.86;100951.75;5052463;28;20090;-80
2022/10/12 05:48:28;;;;;;;10.98;3.70;;;;;;;6.11;89.80;100954.03;5034499;28;20036;-81
2022/10/12 05:50:53;;;;;;;19.67;4.07;;;;;;;6.10;89.04;100958.63;5034200;28;20410;-81
2022/10/12 05:53:20;;;;;;;19.40;4.25;;;;;;;5.93;90.23;100964.44;5052422;28;20191;-81
2022/10/12 05:55:57;;;;;;;19.38;4.90;;;;;;;5.85;90.91;100967.69;5052104;28;20024;-79
2022/10/12 05:58:25;;;;;;;15.27;4.70;;;;;;;5.99;89.82;100967.91;5031231;28;20596;-80
2022/10/12 06:00:51;;;;;;;17.60;4.47;;;;;;;5.90;90.65;100970.41;5051970;28;20029;-80
2022/10/12 06:03:19;;;;;;;9.48;2.95;;;;;;;5.78;91.09;100969.94;5052662;28;20083;-81
2022/10/12 06:05:45;;;;;;;5.82;2.47;;;;;;;5.81;91.16;100972.06;5051046;28;20099;-81
2022/10/12 06:08:10;;;;;;;5.43;2.13;;;;;;;6.15;89.92;100966.69;5050206;28;20466;-82
2022/10/12 06:10:43;;;;;;;7.30;2.25;;;;;;;5.98;90.45;100969.00;5050177;28;20366;-80
2022/10/12 06:13:08;;;;;;;9.85;4.03;;;;;;;5.87;90.81;100970.94;5052064;28;20032;-82
2022/10/12 06:15:35;;;;;;;7.07;2.87;;;;;;;5.82;90.75;100975.56;5051959;28;20029;-80
2022/10/12 06:18:00;;;;;;;9.85;3.10;;;;;;;5.90;91.28;100975.81;5051577;28;20388;-80
2022/10/12 06:20:26;;;;;;;8.13;2.93;;;;;;;5.94;90.77;100973.34;5050292;28;20025;-79
2022/10/12 06:22:51;;;;;;;9.02;3.00;;;;;;;5.95;90.76;100964.16;5050591;28;20392;-80
2022/10/12 06:25:16;;;;;;;7.23;3.60;;;;;;;6.27;89.81;100956.28;5052037;28;20063;-80
2022/10/12 06:27:45;;;;;;;11.50;5.17;;;;;;;6.29;88.89;100962.22;5052080;28;20029;-81
2022/10/12 06:30:12;;;;;;;10.63;4.18;;;;;;;6.19;89.51;100967.72;5051915;28;20771;-81
2022/10/12 06:32:38;;;;;;;11.18;4.32;;;;;;;6.29;89.07;100973.03;5050617;28;20029;-80
2022/10/12 06:35:03;;;;;;;8.40;4.45;;;;;;;6.27;88.97;100972.53;5050421;28;20037;-81
2022/10/12 06:37:29;;;;;;;10.55;4.15;;;;;;;6.21;89.55;100973.66;5051615;28;20048;-81
2022/10/12 06:39:55;;;;;;;12.65;4.07;;;;;;;6.20;91.44;100973.94;5051512;28;20029;-81
2022/10/12 06:42:23;;;;;;;6.65;3.53;;;;;;;6.34;88.74;100980.28;5051644;28;20078;-79
2022/10/12 06:44:48;;;;;;;8.48;3.70;;;;;;;6.19;89.85;100972.31;5051876;28;20122;-81
2022/10/12 06:47:14;;;;;;;8.30;3.17;;;;;;;6.30;89.00;100974.66;5050577;28;20080;-80
2022/10/12 06:49:40;;;;;;;7.85;3.33;;;;;;;6.36;88.94;100971.88;5051733;28;20029;-81
2022/10/12 06:52:05;;;;;;;8.35;3.28;;;;;;;6.40;90.79;100972.97;5051879;28;20039;-80
2022/10/12 06:54:30;;;;;;;9.63;2.90;;;;;;;6.41;88.55;100969.97;5050349;28;20065;-81
2022/10/12 06:56:56;;;;;;;6.03;2.73;;;;;;;6.37;88.84;100976.22;5050109;28;20045;-81
2022/10/12 06:59:21;;;;;;;8.70;3.23;;;;;;;6.36;90.47;100974.59;5051328;28;20083;-81
2022/10/12 07:01:48;;;;;;;6.95;2.78;;;;;;;6.39;90.18;100971.34;5051304;28;20271;-80
2022/10/12 07:04:14;;;;;;;13.80;3.40;;;;;;;6.60;88.04;100975.44;5051789;28;20048;-81
2022/10/12 07:06:39;;;;;;;9.60;3.55;;;;;;;6.52;87.63;100974.16;5051514;28;20536;-81
2022/10/12 07:09:04;;;;;;;10.73;2.80;;;;;;;6.51;87.92;100969.03;5052254;28;20037;-80
2022/10/12 07:11:30;;;;;;;7.28;3.00;;;;;;;6.54;88.14;100966.56;5053594;28;20052;-80
2022/10/12 07:13:56;;;;;;;6.75;2.60;;;;;;;6.60;87.46;100962.72;5053747;28;20033;-81
2022/10/12 07:16:22;;;;;;;10.10;3.45;;;;;;;6.69;87.32;100962.88;5055044;28;20489;-82
2022/10/12 07:18:49;;;;;;;9.85;2.78;;;;;;;6.81;87.22;100966.00;5055273;28;20029;-80
2022/10/12 07:21:14;;;;;;;6.13;2.50;;;;;;;6.67;87.65;100965.06;5055149;28;20021;-80
2022/10/12 07:23:40;;;;;;;6.30;2.28;;;;;;;6.88;86.67;100952.09;5054781;28;20399;-80
2022/10/12 07:26:06;;;;;;;7.53;2.72;;;;;;;7.04;86.37;100950.00;5053309;28;20551;-79
2022/10/12 07:28:33;;;;;;;7.15;2.85;;;;;;;7.11;85.88;100961.31;5054786;28;20025;-80
2022/10/12 07:31:08;;;;;;;5.93;2.17;;;;;;;7.11;85.58;100959.41;5054721;28;20051;-80
2022/10/12 07:33:34;;;;;;;7.13;2.35;;;;;;;7.02;86.41;100957.63;5053603;28;20039;-81
2022/10/12 07:36:01;;;;;;;;;;;;;;;7.24;85.58;100949.75;5053691;28;20123;-80
2022/10/12 07:38:26;;;;;;;8.50;3.50;;;;;;;7.19;85.56;100945.19;5053105;28;19999;-79
2022/10/12 07:40:52;;;;;;;15.30;3.40;;;;;;;7.30;85.87;100954.00;5053449;28;20103;-80
2022/10/12 07:43:18;;;;;;;10.55;3.15;;;;;;;7.47;85.40;100958.91;5055153;28;20089;-80
2022/10/12 07:45:47;;;;;;;8.87;3.67;;;;;;;7.66;84.06;100948.88;5054416;28;20029;-80
2022/10/12 07:48:12;;;;;;;6.40;2.00;;;;;;;7.84;84.84;100952.66;5053757;28;20056;-82
2022/10/12 07:50:38;;;;;;;9.70;2.47;;;;;;;8.09;82.41;100948.72;5054670;28;20049;-80
2022/10/12 07:53:04;;;;;;;11.50;3.05;;;;;;;8.20;81.09;100949.31;5053955;28;20120;-81
2022/10/12 07:55:33;;;;;;;4.32;1.50;;;;;;;8.15;81.19;100953.75;5052272;28;20121;-80
2022/10/12 07:57:59;;;;;;;7.63;1.95;;;;;;;8.31;80.79;100948.06;5053074;28;20053;-80
2022/10/12 08:00:25;;;;;;;5.25;1.35;;;;;;;8.39;80.40;100948.19;5053818;28;20060;-80
2022/10/12 08:02:51;;;;;;;4.22;1.40;;;;;;;8.53;79.85;100953.63;5055334;28;20028;-80
2022/10/12 08:05:20;;;;;;;6.30;2.20;;;;;;;8.60;79.68;100954.06;5055061;28;20596;-81
2022/10/12 08:07:47;;;;;;;5.38;2.03;;;;;;;8.70;79.68;100950.31;5054724;28;20029;-81
2022/10/12 08:10:13;;;;;;;5.65;2.10;;;;;;;8.87;78.74;100949.72;5054792;28;20061;-81
2022/10/12 08:12:41;;;;;;;9.13;2.63;;;;;;;8.93;78.58;100948.53;5055089;28;20092;-81
2022/10/12 08:15:07;;;;;;;5.03;1.70;;;;;;;9.06;78.47;100950.41;5053361;28;20036;-82
2022/10/12 08:17:32;;;;;;;4.40;1.40;;;;;;;9.23;77.30;100956.00;5054986;28;20068;-82
2022/10/12 08:19:58;;;;;;;5.18;1.60;;;;;;;9.40;76.67;100954.56;5054881;28;20037;-82
2022/10/12 08:22:23;;;;;;;8.15;2.35;;;;;;;9.67;76.73;100959.91;5054327;28;20107;-81
2022/10/12 08:24:48;;;;;;;7.63;1.85;;;;;;;9.77;76.00;100953.44;5054446;28;20040;-81
2022/10/12 08:27:14;;;;;;;5.53;1.63;;;;;;;9.75;76.67;100953.75;5054455;28;20028;-82
2022/10/12 08:29:40;;;;;;;5.60;1.83;;;;;;;10.02;75.43;100960.97;5054948;28;20037;-80
2022/10/12 08:32:06;;;;;;;5.37;1.50;;;;;;;10.08;75.77;100953.50;5055246;28;20100;-82
2022/10/12 08:34:31;;;;;;;3.95;1.70;;;;;;;10.12;74.52;100954.47;5052950;28;20275;-81
2022/10/12 08:36:58;;;;;;;6.07;1.67;;;;;;;10.20;74.53;100948.28;5053596;28;20029;-81
2022/10/12 08:39:23;;;;;;;3.40;1.15;;;;;;;10.28;74.23;100953.00;5053637;28;20454;-81
2022/10/12 08:42:14;;;;;;;4.53;1.80;;;;;;;10.33;73.75;100939.25;5053255;28;20047;-81
2022/10/12 08:44:48;;;;;;;5.72;1.67;;;;;;;10.41;74.75;100946.69;5053030;28;20121;-81
2022/10/12 08:47:24;;;;;;;4.18;1.63;;;;;;;10.55;73.57;100947.34;5054125;28;20033;-81
2022/10/12 08:49:52;;;;;;;3.60;1.20;;;;;;;10.63;73.18;100950.44;5053361;28;20025;-80
2022/10/12 08:52:34;;;;;;;3.55;1.27;;;;;;;10.60;73.79;100948.34;5053239;28;20406;-81
2022/10/12 08:55:15;;;;;;;8.48;1.63;;;;;;;10.52;74.84;100939.00;5052655;28;20052;-81
2022/10/12 08:57:41;;;;;;;7.93;1.65;;;;;;;10.74;73.42;100947.09;5053604;28;20087;-80
2022/10/12 09:00:14;;;;;;;5.63;1.83;;;;;;;10.84;72.69;100940.56;5035582;28;20028;-80
2022/10/12 09:03:04;;;;;;;5.50;1.60;;;;;;;10.85;72.94;100939.44;5053594;28;20268;-80
2022/10/12 09:05:39;;;;;;;5.85;1.50;;;;;;;10.92;72.47;100934.34;5053555;28;20029;-79
2022/10/12 09:08:20;;;;;;;3.72;1.52;;;;;;;10.98;72.01;100938.53;5053248;28;20032;-80
2022/10/12 09:10:49;;;;;;;4.80;1.88;;;;;;;11.14;72.16;100949.78;5032525;28;20032;-81
2022/10/12 09:13:32;;;;;;;5.85;1.38;;;;;;;11.20;72.26;100942.25;5019329;28;20076;-81
2022/10/12 09:16:26;;;;;;;6.18;2.47;;;;;;;11.22;72.19;100954.44;5051736;28;20021;-81
2022/10/12 09:18:57;;;;;;;9.63;3.13;;;;;;;11.61;70.55;100941.81;5050712;28;20489;-81
2022/10/12 09:21:27;;;;;;;4.70;1.55;;;;;;;11.56;70.61;100945.47;5018152;28;20032;-81
2022/10/12 09:23:55;;;;;;;3.72;1.38;;;;;;;11.83;69.09;100938.94;5051976;28;20536;-80
2022/10/12 09:26:34;;;;;;;5.43;1.33;;;;;;;11.92;68.06;100934.25;5052198;28;20024;-80
2022/10/12 09:29:01;;;;;;;3.20;1.10;;;;;;;11.86;68.29;100946.47;5052174;28;20123;-81
2022/10/12 09:31:58;;;;;;;3.47;1.33;;;;;;;11.72;68.52;100938.41;5033976;28;20021;-81
2022/10/12 09:34:24;;;;;;;4.15;1.48;;;;;;;11.90;69.13;100944.69;5034288;28;20144;-81
2022/10/12 09:36:50;;;;;;;3.38;1.15;;;;;;;11.93;69.31;100940.53;5052127;28;20052;-81
2022/10/12 09:39:20;;;;;;;4.35;1.27;;;;;;;11.73;69.87;100944.66;5033820;28;20039;-81
2022/10/12 09:41:48;;;;;;;4.25;1.45;;;;;;;11.99;68.72;100945.50;5052066;28;20510;-81
2022/10/12 09:44:28;;;;;;;3.88;1.27;;;;;;;12.05;68.52;100943.38;5052069;28;20102;-80
2022/10/12 09:46:59;;;;;;;4.15;1.25;;;;;;;12.09;68.61;100947.06;5052022;28;20021;-81
2022/10/12 09:49:45;;;;;;;6.22;1.35;;;;;;;12.60;66.47;100948.06;5051562;28;20103;-79
2022/10/12 09:52:14;;;;;;;4.35;1.40;;;;;;;12.74;66.18;100942.34;5052260;28;20085;-81
2022/10/12 09:54:45;;;;;;;3.22;1.08;;;;;;;12.79;65.75;100940.25;5033801;28;20040;-80
2022/10/12 09:57:32;;;;;;;2.95;0.80;;;;;;;12.74;64.42;100934.16;5051350;28;20055;-81
2022/10/12 10:00:22;;;;;;;5.13;1.10;;;;;;;12.71;65.19;100935.59;5034548;28;20124;-81
2022/10/12 10:02:49;;;;;;;4.05;0.93;;;;;;;12.87;63.80;100930.38;5052034;28;20427;-81
2022/10/12 10:05:41;;;;;;;3.80;1.25;;;;;;;12.67;63.91;100929.19;5052280;28;20024;-79
2022/10/12 10:08:13;;;;;;;2.38;0.93;;;;;;;12.63;64.22;100931.00;5047936;28;20043;-81
2022/10/12 10:10:50;;;;;;;2.33;0.73;;;;;;;13.28;61.29;100929.69;5034066;28;20017;-80
2022/10/12 10:13:16;;;;;;;3.92;0.95;;;;;;;13.04;62.47;100927.53;5029295;28;20056;-81
2022/10/12 10:15:47;;;;;;;3.47;0.70;;;;;;;13.29;61.84;100933.22;5052087;28;20038;-81
2022/10/12 10:18:31;;;;;;;5.60;1.25;;;;;;;13.30;61.56;100934.81;5034259;28;20021;-80
2022/10/12 10:20:58;;;;;;;3.25;0.90;;;;;;;13.44;60.86;100924.41;5034400;28;20448;-81
2022/10/12 10:23:31;;;;;;;6.65;1.10;;;;;;;13.60;61.67;100922.63;5052450;28;20017;-81
2022/10/12 10:26:03;;;;;;;3.75;0.93;;;;;;;13.62;61.13;100928.59;5046167;28;20033;-81
2022/10/12 10:28:31;;;;;;;7.07;1.70;;;;;;;13.84;59.91;100922.75;5051815;28;20117;-81
2022/10/12 10:31:02;;;;;;;2.97;0.80;;;;;;;13.74;60.47;100925.09;5033589;28;20028;-81
2022/10/12 10:33:35;;;;;;;5.53;1.58;;;;;;;13.68;59.58;100929.19;5051497;28;20036;-81
2022/10/12 10:36:05;;;;;;;2.95;0.82;;;;;;;13.54;60.51;100922.06;5051607;28;20048;-80
2022/10/12 10:38:58;;;;;;;5.03;0.90;;;;;;;13.64;60.44;100920.84;5051383;28;20150;-81
2022/10/12 10:41:28;;;;;;;3.88;1.15;;;;;;;13.94;59.37;100923.47;5041526;28;20041;-82
2022/10/12 10:43:54;;;;;;;4.85;0.93;;;;;;;13.86;58.04;100908.72;5033947;28;20025;-81
2022/10/12 10:46:25;;;;;;;8.48;1.92;;;;;;;13.75;58.61;100922.03;5055196;28;20037;-81
2022/10/12 10:49:05;;;;;;;4.85;1.10;;;;;;;13.97;59.48;100917.34;5055717;28;20056;-81
2022/10/12 10:51:51;;;;;;;4.53;1.23;;;;;;;13.69;60.24;100912.44;5037649;28;20116;-81
2022/10/12 10:54:23;;;;;;;5.78;1.23;;;;;;;13.67;60.27;100903.75;5037619;28;20029;-82
2022/10/12 10:56:51;;;;;;;4.10;1.17;;;;;;;14.39;58.70;100910.56;5038980;28;20048;-81
2022/10/12 10:59:23;;;;;;;3.97;0.93;;;;;;;14.36;57.65;100902.22;5055599;28;20033;-81
2022/10/12 11:02:02;;;;;;;3.60;1.25;;;;;;;14.47;58.30;100897.94;5053539;28;20051;-81
2022/10/12 11:04:43;;;;;;;3.83;1.00;;;;;;;14.75;57.95;100904.31;5055020;28;20029;-81
2022/10/12 11:07:29;;;;;;;6.13;1.17;;;;;;;14.80;57.97;100899.75;5055248;28;20025;-81
2022/10/12 11:09:58;;;;;;;3.85;0.85;;;;;;;14.35;58.29;100895.16;5055576;28;20048;-81
2022/10/12 11:12:32;;;;;;;6.15;1.05;;;;;;;14.35;58.92;100897.88;5054890;28;20079;-81
2022/10/12 11:15:14;;;;;;;3.40;1.20;;;;;;;14.09;59.38;100898.97;5053902;28;20749;-81
2022/10/12 11:17:47;;;;;;;1.77;0.82;;;;;;;14.13;58.75;100899.91;5054585;28;20139;-81
2022/10/12 11:20:32;;;;;;;2.70;0.90;;;;;;;14.17;59.17;100901.97;5054937;28;20032;-81
2022/10/12 11:23:09;;;;;;;3.97;0.73;;;;;;;14.55;57.90;100894.25;5055118;28;20033;-80
2022/10/12 11:25:59;;;;;;;6.90;1.55;;;;;;;14.48;58.41;100890.50;5054885;28;20450;-81
2022/10/12 11:28:30;;;;;;;2.83;0.80;;;;;;;14.51;59.37;100884.34;5054473;28;20033;-81
2022/10/12 11:30:56;;;;;;;3.03;0.90;;;;;;;14.56;58.86;100886.84;5054883;28;20050;-81
2022/10/12 11:33:22;;;;;;;;;;;;;;;14.39;59.67;100874.13;5055596;28;20021;-83
2022/10/12 11:35:50;;;;;;;4.65;1.23;;;;;;;14.29;59.71;100880.09;5053738;28;20380;-82
2022/10/12 11:38:24;;;;;;;3.58;1.20;;;;;;;14.13;59.55;100875.25;5053603;28;20481;-82
2022/10/12 11:40:52;;;;;;;3.85;1.02;;;;;;;14.15;59.50;100878.47;5055037;28;20063;-82
2022/10/12 11:43:23;;;;;;;7.60;1.85;;;;;;;14.09;59.97;100877.06;5053875;28;20021;-82
2022/10/12 11:45:55;;;;;;;2.80;1.00;;;;;;;14.02;60.20;100874.09;5055206;28;20021;-83
2022/10/12 11:48:26;;;;;;;3.35;1.10;;;;;;;14.04;60.40;100873.75;5054744;28;20024;-82